sensor_id;sensor_type;location;lat;lon;timestamp;P1;P2;P0
56069;PMS5003;41944;52.078;-0.058;2022-09-28T00:01:33;5;4;
56069;PMS5003;41944;52.078;-0.058;2022-09-28T00:04:01;8;5;
56069;PMS5003;41944;52.078;-0.058;2022-09-28T00:06:28;6;5;
56069;PMS5003;41944;52.078;-0.058;2022-09-28T00:08:56;7;5;
56069;PMS5003;41944;52.078;-0.058;2022-09-28T00:11:24;7;4;
56069;PMS5003;41944;52.078;-0.058;2022-09-28T00:13:52;6;5;
56069;PMS5003;41944;52.078;-0.058;2022-09-28T00:16:22;6;4;
56069;PMS5003;41944;52.078;-0.058;2022-09-28T00:18:51;7;5;
56069;PMS5003;41944;52.078;-0.058;2022-09-28T00:21:19;7;5;
56069;PMS5003;41944;52.078;-0.058;2022-09-28T00:23:50;5;3;
56069;PMS5003;41944;52.078;-0.058;2022-09-28T00:26:18;5;5;
56069;PMS5003;41944;52.078;-0.058;2022-09-28T00:28:45;4;4;
56069;PMS5003;41944;52.078;-0.058;2022-09-28T00:31:12;6;3;
56069;PMS5003;41944;52.078;-0.058;2022-09-28T00:33:38;7;4;
56069;PMS5003;41944;52.078;-0.058;2022-09-28T00:36:05;4;3;
56069;PMS5003;41944;52.078;-0.058;2022-09-28T00:38:33;5;5;
56069;PMS5003;41944;52.078;-0.058;2022-09-28T00:41:00;3;3;
56069;PMS5003;41944;52.078;-0.058;2022-09-28T00:43:27;5;3;
56069;PMS5003;41944;52.078;-0.058;2022-09-28T00:45:55;5;4;
56069;PMS5003;41944;52.078;-0.058;2022-09-28T00:48:28;6;3;
56069;PMS5003;41944;52.078;-0.058;2022-09-28T00:50:59;2;2;
56069;PMS5003;41944;52.078;-0.058;2022-09-28T00:53:30;5;5;
56069;PMS5003;41944;52.078;-0.058;2022-09-28T00:56:00;2;2;
56069;PMS5003;41944;52.078;-0.058;2022-09-28T00:58:31;5;5;
56069;PMS5003;41944;52.078;-0.058;2022-09-28T01:01:02;4;4;
56069;PMS5003;41944;52.078;-0.058;2022-09-28T01:03:30;2;2;
56069;PMS5003;41944;52.078;-0.058;2022-09-28T01:06:00;12;6;
56069;PMS5003;41944;52.078;-0.058;2022-09-28T01:08:29;5;4;
56069;PMS5003;41944;52.078;-0.058;2022-09-28T01:10:58;6;3;
56069;PMS5003;41944;52.078;-0.058;2022-09-28T01:13:26;6;3;
56069;PMS5003;41944;52.078;-0.058;2022-09-28T01:15:57;5;4;
56069;PMS5003;41944;52.078;-0.058;2022-09-28T01:18:33;4;4;
56069;PMS5003;41944;52.078;-0.058;2022-09-28T01:21:11;4;2;
56069;PMS5003;41944;52.078;-0.058;2022-09-28T01:24:20;4;3;
56069;PMS5003;41944;52.078;-0.058;2022-09-28T01:27:04;5;3;
56069;PMS5003;41944;52.078;-0.058;2022-09-28T01:29:42;5;3;
56069;PMS5003;41944;52.078;-0.058;2022-09-28T01:32:15;2;2;
56069;PMS5003;41944;52.078;-0.058;2022-09-28T01:34:53;4;4;
56069;PMS5003;41944;52.078;-0.058;2022-09-28T01:37:36;7;4;
56069;PMS5003;41944;52.078;-0.058;2022-09-28T01:40:08;7;7;
56069;PMS5003;41944;52.078;-0.058;2022-09-28T01:42:38;9;3;
56069;PMS5003;41944;52.078;-0.058;2022-09-28T01:45:08;9;5;
56069;PMS5003;41944;52.078;-0.058;2022-09-28T01:47:41;5;4;
56069;PMS5003;41944;52.078;-0.058;2022-09-28T01:50:13;5;3;
56069;PMS5003;41944;52.078;-0.058;2022-09-28T01:52:45;10;5;
56069;PMS5003;41944;52.078;-0.058;2022-09-28T01:55:18;4;3;
56069;PMS5003;41944;52.078;-0.058;2022-09-28T01:57:54;3;3;
56069;PMS5003;41944;52.078;-0.058;2022-09-28T02:00:27;2;2;
56069;PMS5003;41944;52.078;-0.058;2022-09-28T02:02:58;6;4;
56069;PMS5003;41944;52.078;-0.058;2022-09-28T02:05:31;5;4;
56069;PMS5003;41944;52.078;-0.058;2022-09-28T02:08:02;8;6;
56069;PMS5003;41944;52.078;-0.058;2022-09-28T02:10:36;7;5;
56069;PMS5003;41944;52.078;-0.058;2022-09-28T02:13:08;9;5;
56069;PMS5003;41944;52.078;-0.058;2022-09-28T02:15:41;7;5;
56069;PMS5003;41944;52.078;-0.058;2022-09-28T02:18:11;10;5;
56069;PMS5003;41944;52.078;-0.058;2022-09-28T02:20:38;7;5;
56069;PMS5003;41944;52.078;-0.058;2022-09-28T02:23:11;5;4;
56069;PMS5003;41944;52.078;-0.058;2022-09-28T02:25:41;4;4;
56069;PMS5003;41944;52.078;-0.058;2022-09-28T02:28:12;3;3;
56069;PMS5003;41944;52.078;-0.058;2022-09-28T02:30:42;6;4;
56069;PMS5003;41944;52.078;-0.058;2022-09-28T02:33:11;8;5;
56069;PMS5003;41944;52.078;-0.058;2022-09-28T02:35:41;5;5;
56069;PMS5003;41944;52.078;-0.058;2022-09-28T02:38:09;9;7;
56069;PMS5003;41944;52.078;-0.058;2022-09-28T02:40:37;14;6;
56069;PMS5003;41944;52.078;-0.058;2022-09-28T02:43:09;6;6;
56069;PMS5003;41944;52.078;-0.058;2022-09-28T02:45:46;5;5;
56069;PMS5003;41944;52.078;-0.058;2022-09-28T02:48:27;10;5;
56069;PMS5003;41944;52.078;-0.058;2022-09-28T02:51:09;8;7;
56069;PMS5003;41944;52.078;-0.058;2022-09-28T02:53:51;8;6;
56069;PMS5003;41944;52.078;-0.058;2022-09-28T02:56:41;13;5;
56069;PMS5003;41944;52.078;-0.058;2022-09-28T02:59:24;8;6;
56069;PMS5003;41944;52.078;-0.058;2022-09-28T03:02:04;4;3;
56069;PMS5003;41944;52.078;-0.058;2022-09-28T03:04:41;9;5;
56069;PMS5003;41944;52.078;-0.058;2022-09-28T03:07:16;5;5;
56069;PMS5003;41944;52.078;-0.058;2022-09-28T03:09:52;6;5;
56069;PMS5003;41944;52.078;-0.058;2022-09-28T03:12:25;7;4;
56069;PMS5003;41944;52.078;-0.058;2022-09-28T03:15:04;6;5;
56069;PMS5003;41944;52.078;-0.058;2022-09-28T03:17:32;7;6;
56069;PMS5003;41944;52.078;-0.058;2022-09-28T03:19:59;4;4;
56069;PMS5003;41944;52.078;-0.058;2022-09-28T03:22:26;7;6;
56069;PMS5003;41944;52.078;-0.058;2022-09-28T03:24:52;8;5;
56069;PMS5003;41944;52.078;-0.058;2022-09-28T03:27:19;5;4;
56069;PMS5003;41944;52.078;-0.058;2022-09-28T03:29:46;6;5;
56069;PMS5003;41944;52.078;-0.058;2022-09-28T03:32:13;7;6;
56069;PMS5003;41944;52.078;-0.058;2022-09-28T03:34:40;6;6;
56069;PMS5003;41944;52.078;-0.058;2022-09-28T03:37:07;6;5;
56069;PMS5003;41944;52.078;-0.058;2022-09-28T03:39:34;9;5;
56069;PMS5003;41944;52.078;-0.058;2022-09-28T03:42:01;5;5;
56069;PMS5003;41944;52.078;-0.058;2022-09-28T03:44:28;10;6;
56069;PMS5003;41944;52.078;-0.058;2022-09-28T03:46:55;9;7;
56069;PMS5003;41944;52.078;-0.058;2022-09-28T03:49:22;9;6;
56069;PMS5003;41944;52.078;-0.058;2022-09-28T03:51:49;12;6;
56069;PMS5003;41944;52.078;-0.058;2022-09-28T03:54:16;7;6;
56069;PMS5003;41944;52.078;-0.058;2022-09-28T03:56:43;6;5;
56069;PMS5003;41944;52.078;-0.058;2022-09-28T03:59:11;7;7;
56069;PMS5003;41944;52.078;-0.058;2022-09-28T04:01:38;7;4;
56069;PMS5003;41944;52.078;-0.058;2022-09-28T04:04:05;6;6;
56069;PMS5003;41944;52.078;-0.058;2022-09-28T04:06:32;6;5;
56069;PMS5003;41944;52.078;-0.058;2022-09-28T04:08:58;6;6;
56069;PMS5003;41944;52.078;-0.058;2022-09-28T04:11:25;6;6;
56069;PMS5003;41944;52.078;-0.058;2022-09-28T04:13:52;12;8;
56069;PMS5003;41944;52.078;-0.058;2022-09-28T04:16:19;21;19;
56069;PMS5003;41944;52.078;-0.058;2022-09-28T04:18:46;10;6;
56069;PMS5003;41944;52.078;-0.058;2022-09-28T04:21:15;7;5;
56069;PMS5003;41944;52.078;-0.058;2022-09-28T04:23:43;7;7;
56069;PMS5003;41944;52.078;-0.058;2022-09-28T04:26:12;8;8;
56069;PMS5003;41944;52.078;-0.058;2022-09-28T04:28:42;10;8;
56069;PMS5003;41944;52.078;-0.058;2022-09-28T04:31:09;7;5;
56069;PMS5003;41944;52.078;-0.058;2022-09-28T04:33:37;8;6;
56069;PMS5003;41944;52.078;-0.058;2022-09-28T04:36:05;7;6;
56069;PMS5003;41944;52.078;-0.058;2022-09-28T04:38:32;8;5;
56069;PMS5003;41944;52.078;-0.058;2022-09-28T04:40:59;10;8;
56069;PMS5003;41944;52.078;-0.058;2022-09-28T04:43:26;12;8;
56069;PMS5003;41944;52.078;-0.058;2022-09-28T04:45:56;8;8;
56069;PMS5003;41944;52.078;-0.058;2022-09-28T04:48:24;7;7;
56069;PMS5003;41944;52.078;-0.058;2022-09-28T04:50:52;8;6;
56069;PMS5003;41944;52.078;-0.058;2022-09-28T04:53:20;7;6;
56069;PMS5003;41944;52.078;-0.058;2022-09-28T04:55:56;12;10;
56069;PMS5003;41944;52.078;-0.058;2022-09-28T04:58:24;6;6;
56069;PMS5003;41944;52.078;-0.058;2022-09-28T05:00:51;7;6;
56069;PMS5003;41944;52.078;-0.058;2022-09-28T05:03:19;10;7;
56069;PMS5003;41944;52.078;-0.058;2022-09-28T05:05:47;10;6;
56069;PMS5003;41944;52.078;-0.058;2022-09-28T05:08:13;7;5;
56069;PMS5003;41944;52.078;-0.058;2022-09-28T05:10:41;8;8;
56069;PMS5003;41944;52.078;-0.058;2022-09-28T05:13:10;11;9;
56069;PMS5003;41944;52.078;-0.058;2022-09-28T05:15:38;9;7;
56069;PMS5003;41944;52.078;-0.058;2022-09-28T05:18:07;13;10;
56069;PMS5003;41944;52.078;-0.058;2022-09-28T05:20:38;12;9;
56069;PMS5003;41944;52.078;-0.058;2022-09-28T05:23:08;7;7;
56069;PMS5003;41944;52.078;-0.058;2022-09-28T05:25:35;7;7;
56069;PMS5003;41944;52.078;-0.058;2022-09-28T05:28:03;9;7;
56069;PMS5003;41944;52.078;-0.058;2022-09-28T05:30:31;10;7;
56069;PMS5003;41944;52.078;-0.058;2022-09-28T05:32:59;8;7;
56069;PMS5003;41944;52.078;-0.058;2022-09-28T05:35:26;7;6;
56069;PMS5003;41944;52.078;-0.058;2022-09-28T05:37:53;10;6;
56069;PMS5003;41944;52.078;-0.058;2022-09-28T05:40:20;7;7;
56069;PMS5003;41944;52.078;-0.058;2022-09-28T05:42:47;9;7;
56069;PMS5003;41944;52.078;-0.058;2022-09-28T05:45:15;9;8;
56069;PMS5003;41944;52.078;-0.058;2022-09-28T05:47:42;11;10;
56069;PMS5003;41944;52.078;-0.058;2022-09-28T05:50:10;10;7;
56069;PMS5003;41944;52.078;-0.058;2022-09-28T05:52:37;13;10;
56069;PMS5003;41944;52.078;-0.058;2022-09-28T05:55:05;8;8;
56069;PMS5003;41944;52.078;-0.058;2022-09-28T05:57:32;11;10;
56069;PMS5003;41944;52.078;-0.058;2022-09-28T06:00:00;11;6;
56069;PMS5003;41944;52.078;-0.058;2022-09-28T06:02:27;9;8;
56069;PMS5003;41944;52.078;-0.058;2022-09-28T06:04:54;14;12;
56069;PMS5003;41944;52.078;-0.058;2022-09-28T06:07:21;12;9;
56069;PMS5003;41944;52.078;-0.058;2022-09-28T06:09:48;11;9;
56069;PMS5003;41944;52.078;-0.058;2022-09-28T06:12:15;11;9;
56069;PMS5003;41944;52.078;-0.058;2022-09-28T06:14:43;12;9;
56069;PMS5003;41944;52.078;-0.058;2022-09-28T06:17:09;10;9;
56069;PMS5003;41944;52.078;-0.058;2022-09-28T06:19:36;10;8;
56069;PMS5003;41944;52.078;-0.058;2022-09-28T06:22:03;15;10;
56069;PMS5003;41944;52.078;-0.058;2022-09-28T06:24:30;12;11;
56069;PMS5003;41944;52.078;-0.058;2022-09-28T06:26:57;12;9;
56069;PMS5003;41944;52.078;-0.058;2022-09-28T06:29:24;8;6;
56069;PMS5003;41944;52.078;-0.058;2022-09-28T06:31:51;12;10;
56069;PMS5003;41944;52.078;-0.058;2022-09-28T06:34:18;22;17;
56069;PMS5003;41944;52.078;-0.058;2022-09-28T06:36:45;15;11;
56069;PMS5003;41944;52.078;-0.058;2022-09-28T06:39:12;8;8;
56069;PMS5003;41944;52.078;-0.058;2022-09-28T06:41:40;10;9;
56069;PMS5003;41944;52.078;-0.058;2022-09-28T06:44:07;7;7;
56069;PMS5003;41944;52.078;-0.058;2022-09-28T06:46:34;8;8;
56069;PMS5003;41944;52.078;-0.058;2022-09-28T06:49:01;13;10;
56069;PMS5003;41944;52.078;-0.058;2022-09-28T06:51:29;9;9;
56069;PMS5003;41944;52.078;-0.058;2022-09-28T06:53:55;13;13;
56069;PMS5003;41944;52.078;-0.058;2022-09-28T06:56:22;11;9;
56069;PMS5003;41944;52.078;-0.058;2022-09-28T06:58:50;9;9;
56069;PMS5003;41944;52.078;-0.058;2022-09-28T07:01:17;12;11;
56069;PMS5003;41944;52.078;-0.058;2022-09-28T07:03:44;12;12;
56069;PMS5003;41944;52.078;-0.058;2022-09-28T07:06:12;13;11;
56069;PMS5003;41944;52.078;-0.058;2022-09-28T07:08:39;14;13;
56069;PMS5003;41944;52.078;-0.058;2022-09-28T07:11:07;13;12;
56069;PMS5003;41944;52.078;-0.058;2022-09-28T07:13:34;13;10;
56069;PMS5003;41944;52.078;-0.058;2022-09-28T07:16:01;13;11;
56069;PMS5003;41944;52.078;-0.058;2022-09-28T07:18:28;15;11;
56069;PMS5003;41944;52.078;-0.058;2022-09-28T07:20:55;18;18;
56069;PMS5003;41944;52.078;-0.058;2022-09-28T07:23:22;13;11;
56069;PMS5003;41944;52.078;-0.058;2022-09-28T07:25:49;15;14;
56069;PMS5003;41944;52.078;-0.058;2022-09-28T07:28:16;13;11;
56069;PMS5003;41944;52.078;-0.058;2022-09-28T07:30:43;15;13;
56069;PMS5003;41944;52.078;-0.058;2022-09-28T07:33:11;16;15;
56069;PMS5003;41944;52.078;-0.058;2022-09-28T07:35:39;21;20;
56069;PMS5003;41944;52.078;-0.058;2022-09-28T07:38:07;15;15;
56069;PMS5003;41944;52.078;-0.058;2022-09-28T07:40:35;13;10;
56069;PMS5003;41944;52.078;-0.058;2022-09-28T07:43:03;16;14;
56069;PMS5003;41944;52.078;-0.058;2022-09-28T07:45:30;16;14;
56069;PMS5003;41944;52.078;-0.058;2022-09-28T07:47:57;20;16;
56069;PMS5003;41944;52.078;-0.058;2022-09-28T07:50:24;18;17;
56069;PMS5003;41944;52.078;-0.058;2022-09-28T07:52:51;20;18;
56069;PMS5003;41944;52.078;-0.058;2022-09-28T07:55:18;13;11;
56069;PMS5003;41944;52.078;-0.058;2022-09-28T07:57:46;14;12;
56069;PMS5003;41944;52.078;-0.058;2022-09-28T08:00:13;12;11;
56069;PMS5003;41944;52.078;-0.058;2022-09-28T08:02:40;16;13;
56069;PMS5003;41944;52.078;-0.058;2022-09-28T08:05:07;12;11;
56069;PMS5003;41944;52.078;-0.058;2022-09-28T08:07:34;14;12;
56069;PMS5003;41944;52.078;-0.058;2022-09-28T08:10:01;13;12;
56069;PMS5003;41944;52.078;-0.058;2022-09-28T08:12:29;9;9;
56069;PMS5003;41944;52.078;-0.058;2022-09-28T08:14:57;12;10;
56069;PMS5003;41944;52.078;-0.058;2022-09-28T08:17:23;13;12;
56069;PMS5003;41944;52.078;-0.058;2022-09-28T08:19:50;12;10;
56069;PMS5003;41944;52.078;-0.058;2022-09-28T08:22:18;15;13;
56069;PMS5003;41944;52.078;-0.058;2022-09-28T08:24:45;20;13;
56069;PMS5003;41944;52.078;-0.058;2022-09-28T08:27:14;10;10;
56069;PMS5003;41944;52.078;-0.058;2022-09-28T08:29:42;11;10;
56069;PMS5003;41944;52.078;-0.058;2022-09-28T08:32:09;14;13;
56069;PMS5003;41944;52.078;-0.058;2022-09-28T08:34:36;10;10;
56069;PMS5003;41944;52.078;-0.058;2022-09-28T08:37:05;6;6;
56069;PMS5003;41944;52.078;-0.058;2022-09-28T08:39:34;10;10;
56069;PMS5003;41944;52.078;-0.058;2022-09-28T08:42:05;13;11;
56069;PMS5003;41944;52.078;-0.058;2022-09-28T08:44:44;17;15;
56069;PMS5003;41944;52.078;-0.058;2022-09-28T08:47:18;11;10;
56069;PMS5003;41944;52.078;-0.058;2022-09-28T08:49:50;12;12;
56069;PMS5003;41944;52.078;-0.058;2022-09-28T08:52:18;8;8;
56069;PMS5003;41944;52.078;-0.058;2022-09-28T08:54:52;8;8;
56069;PMS5003;41944;52.078;-0.058;2022-09-28T08:57:26;9;9;
56069;PMS5003;41944;52.078;-0.058;2022-09-28T08:59:58;12;12;
56069;PMS5003;41944;52.078;-0.058;2022-09-28T09:02:30;8;8;
56069;PMS5003;41944;52.078;-0.058;2022-09-28T09:04:59;11;8;
56069;PMS5003;41944;52.078;-0.058;2022-09-28T09:07:33;10;8;
56069;PMS5003;41944;52.078;-0.058;2022-09-28T09:10:19;14;11;
56069;PMS5003;41944;52.078;-0.058;2022-09-28T09:13:04;9;9;
56069;PMS5003;41944;52.078;-0.058;2022-09-28T09:15:48;14;9;
56069;PMS5003;41944;52.078;-0.058;2022-09-28T09:18:19;12;8;
56069;PMS5003;41944;52.078;-0.058;2022-09-28T09:20:57;12;9;
56069;PMS5003;41944;52.078;-0.058;2022-09-28T09:23:29;14;10;
56069;PMS5003;41944;52.078;-0.058;2022-09-28T09:26:03;6;5;
56069;PMS5003;41944;52.078;-0.058;2022-09-28T09:28:42;5;4;
56069;PMS5003;41944;52.078;-0.058;2022-09-28T09:31:26;6;5;
56069;PMS5003;41944;52.078;-0.058;2022-09-28T09:34:07;5;5;
56069;PMS5003;41944;52.078;-0.058;2022-09-28T09:36:48;7;7;
56069;PMS5003;41944;52.078;-0.058;2022-09-28T09:39:32;6;4;
56069;PMS5003;41944;52.078;-0.058;2022-09-28T09:42:15;6;5;
56069;PMS5003;41944;52.078;-0.058;2022-09-28T09:44:58;3;3;
56069;PMS5003;41944;52.078;-0.058;2022-09-28T09:47:37;8;5;
56069;PMS5003;41944;52.078;-0.058;2022-09-28T09:50:09;4;4;
56069;PMS5003;41944;52.078;-0.058;2022-09-28T09:52:45;5;4;
56069;PMS5003;41944;52.078;-0.058;2022-09-28T09:55:17;6;3;
56069;PMS5003;41944;52.078;-0.058;2022-09-28T09:57:50;5;5;
56069;PMS5003;41944;52.078;-0.058;2022-09-28T10:00:23;4;4;
56069;PMS5003;41944;52.078;-0.058;2022-09-28T10:02:50;4;4;
56069;PMS5003;41944;52.078;-0.058;2022-09-28T10:05:20;6;6;
56069;PMS5003;41944;52.078;-0.058;2022-09-28T10:07:52;8;5;
56069;PMS5003;41944;52.078;-0.058;2022-09-28T10:10:28;5;3;
56069;PMS5003;41944;52.078;-0.058;2022-09-28T10:12:59;5;3;
56069;PMS5003;41944;52.078;-0.058;2022-09-28T10:15:27;4;3;
56069;PMS5003;41944;52.078;-0.058;2022-09-28T10:17:56;3;3;
56069;PMS5003;41944;52.078;-0.058;2022-09-28T10:20:25;4;3;
56069;PMS5003;41944;52.078;-0.058;2022-09-28T10:22:58;6;4;
56069;PMS5003;41944;52.078;-0.058;2022-09-28T10:25:29;3;3;
56069;PMS5003;41944;52.078;-0.058;2022-09-28T10:28:00;7;5;
56069;PMS5003;41944;52.078;-0.058;2022-09-28T10:30:30;4;4;
56069;PMS5003;41944;52.078;-0.058;2022-09-28T10:33:03;2;2;
56069;PMS5003;41944;52.078;-0.058;2022-09-28T10:35:38;3;3;
56069;PMS5003;41944;52.078;-0.058;2022-09-28T10:38:12;5;4;
56069;PMS5003;41944;52.078;-0.058;2022-09-28T10:40:43;3;3;
56069;PMS5003;41944;52.078;-0.058;2022-09-28T10:43:16;3;3;
56069;PMS5003;41944;52.078;-0.058;2022-09-28T10:45:47;4;3;
56069;PMS5003;41944;52.078;-0.058;2022-09-28T10:48:24;2;2;
56069;PMS5003;41944;52.078;-0.058;2022-09-28T10:50:56;4;3;
56069;PMS5003;41944;52.078;-0.058;2022-09-28T10:53:25;5;3;
56069;PMS5003;41944;52.078;-0.058;2022-09-28T10:55:56;3;3;
56069;PMS5003;41944;52.078;-0.058;2022-09-28T10:58:27;3;3;
56069;PMS5003;41944;52.078;-0.058;2022-09-28T11:00:58;4;3;
56069;PMS5003;41944;52.078;-0.058;2022-09-28T11:03:27;4;3;
56069;PMS5003;41944;52.078;-0.058;2022-09-28T11:05:57;3;2;
56069;PMS5003;41944;52.078;-0.058;2022-09-28T11:08:28;2;2;
56069;PMS5003;41944;52.078;-0.058;2022-09-28T11:11:00;3;3;
56069;PMS5003;41944;52.078;-0.058;2022-09-28T11:13:36;8;3;
56069;PMS5003;41944;52.078;-0.058;2022-09-28T11:16:06;5;3;
56069;PMS5003;41944;52.078;-0.058;2022-09-28T11:18:44;3;3;
56069;PMS5003;41944;52.078;-0.058;2022-09-28T11:21:13;2;2;
56069;PMS5003;41944;52.078;-0.058;2022-09-28T11:23:45;6;2;
56069;PMS5003;41944;52.078;-0.058;2022-09-28T11:26:21;2;2;
56069;PMS5003;41944;52.078;-0.058;2022-09-28T11:28:49;3;2;
56069;PMS5003;41944;52.078;-0.058;2022-09-28T11:31:23;2;2;
56069;PMS5003;41944;52.078;-0.058;2022-09-28T11:34:00;1;1;
56069;PMS5003;41944;52.078;-0.058;2022-09-28T11:36:35;1;1;
56069;PMS5003;41944;52.078;-0.058;2022-09-28T11:39:18;2;2;
56069;PMS5003;41944;52.078;-0.058;2022-09-28T11:41:55;2;2;
56069;PMS5003;41944;52.078;-0.058;2022-09-28T11:44:34;2;2;
56069;PMS5003;41944;52.078;-0.058;2022-09-28T11:47:09;2;2;
56069;PMS5003;41944;52.078;-0.058;2022-09-28T11:49:56;2;2;
56069;PMS5003;41944;52.078;-0.058;2022-09-28T11:52:33;1;1;
56069;PMS5003;41944;52.078;-0.058;2022-09-28T11:55:09;2;2;
56069;PMS5003;41944;52.078;-0.058;2022-09-28T11:57:43;3;1;
56069;PMS5003;41944;52.078;-0.058;2022-09-28T12:00:23;0;0;
56069;PMS5003;41944;52.078;-0.058;2022-09-28T12:02:52;1;1;
56069;PMS5003;41944;52.078;-0.058;2022-09-28T12:05:25;3;2;
56069;PMS5003;41944;52.078;-0.058;2022-09-28T12:07:56;2;2;
56069;PMS5003;41944;52.078;-0.058;2022-09-28T12:10:32;1;1;
56069;PMS5003;41944;52.078;-0.058;2022-09-28T12:13:05;2;2;
56069;PMS5003;41944;52.078;-0.058;2022-09-28T12:15:40;1;1;
56069;PMS5003;41944;52.078;-0.058;2022-09-28T12:18:13;1;1;
56069;PMS5003;41944;52.078;-0.058;2022-09-28T12:20:46;2;2;
56069;PMS5003;41944;52.078;-0.058;2022-09-28T12:23:18;2;2;
56069;PMS5003;41944;52.078;-0.058;2022-09-28T12:25:52;2;1;
56069;PMS5003;41944;52.078;-0.058;2022-09-28T12:28:25;2;2;
56069;PMS5003;41944;52.078;-0.058;2022-09-28T12:31:04;2;2;
56069;PMS5003;41944;52.078;-0.058;2022-09-28T12:33:38;1;1;
56069;PMS5003;41944;52.078;-0.058;2022-09-28T12:36:15;1;1;
56069;PMS5003;41944;52.078;-0.058;2022-09-28T12:38:57;1;1;
56069;PMS5003;41944;52.078;-0.058;2022-09-28T12:41:37;1;1;
56069;PMS5003;41944;52.078;-0.058;2022-09-28T12:44:35;1;1;
56069;PMS5003;41944;52.078;-0.058;2022-09-28T12:47:17;2;1;
56069;PMS5003;41944;52.078;-0.058;2022-09-28T12:50:01;2;1;
56069;PMS5003;41944;52.078;-0.058;2022-09-28T12:52:38;2;2;
56069;PMS5003;41944;52.078;-0.058;2022-09-28T12:55:16;1;1;
56069;PMS5003;41944;52.078;-0.058;2022-09-28T12:57:55;1;1;
56069;PMS5003;41944;52.078;-0.058;2022-09-28T13:00:25;0;0;
56069;PMS5003;41944;52.078;-0.058;2022-09-28T13:04:10;1;1;
56069;PMS5003;41944;52.078;-0.058;2022-09-28T13:06:55;1;1;
56069;PMS5003;41944;52.078;-0.058;2022-09-28T13:09:32;2;2;
56069;PMS5003;41944;52.078;-0.058;2022-09-28T13:12:13;1;1;
56069;PMS5003;41944;52.078;-0.058;2022-09-28T13:14:57;1;1;
56069;PMS5003;41944;52.078;-0.058;2022-09-28T13:17:43;3;0;
56069;PMS5003;41944;52.078;-0.058;2022-09-28T13:20:22;1;0;
56069;PMS5003;41944;52.078;-0.058;2022-09-28T13:22:56;1;1;
56069;PMS5003;41944;52.078;-0.058;2022-09-28T13:25:31;0;0;
56069;PMS5003;41944;52.078;-0.058;2022-09-28T13:28:00;0;0;
56069;PMS5003;41944;52.078;-0.058;2022-09-28T13:30:29;0;0;
56069;PMS5003;41944;52.078;-0.058;2022-09-28T13:33:00;2;2;
56069;PMS5003;41944;52.078;-0.058;2022-09-28T13:35:30;2;2;
56069;PMS5003;41944;52.078;-0.058;2022-09-28T13:39:46;1;1;
56069;PMS5003;41944;52.078;-0.058;2022-09-28T13:42:22;0;0;
56069;PMS5003;41944;52.078;-0.058;2022-09-28T13:45:56;1;1;
56069;PMS5003;41944;52.078;-0.058;2022-09-28T13:48:34;1;1;
56069;PMS5003;41944;52.078;-0.058;2022-09-28T13:51:16;0;0;
56069;PMS5003;41944;52.078;-0.058;2022-09-28T13:54:00;0;0;
56069;PMS5003;41944;52.078;-0.058;2022-09-28T13:56:41;0;0;
56069;PMS5003;41944;52.078;-0.058;2022-09-28T13:59:14;2;2;
56069;PMS5003;41944;52.078;-0.058;2022-09-28T14:01:49;1;1;
56069;PMS5003;41944;52.078;-0.058;2022-09-28T14:04:22;1;1;
56069;PMS5003;41944;52.078;-0.058;2022-09-28T14:06:52;0;0;
56069;PMS5003;41944;52.078;-0.058;2022-09-28T14:09:24;0;0;
56069;PMS5003;41944;52.078;-0.058;2022-09-28T14:12:14;1;1;
56069;PMS5003;41944;52.078;-0.058;2022-09-28T14:14:55;4;2;
56069;PMS5003;41944;52.078;-0.058;2022-09-28T14:17:50;1;1;
56069;PMS5003;41944;52.078;-0.058;2022-09-28T14:20:24;3;1;
56069;PMS5003;41944;52.078;-0.058;2022-09-28T14:23:01;1;1;
56069;PMS5003;41944;52.078;-0.058;2022-09-28T14:25:44;0;0;
56069;PMS5003;41944;52.078;-0.058;2022-09-28T14:28:28;1;1;
56069;PMS5003;41944;52.078;-0.058;2022-09-28T14:31:08;2;2;
56069;PMS5003;41944;52.078;-0.058;2022-09-28T14:33:42;1;1;
56069;PMS5003;41944;52.078;-0.058;2022-09-28T14:36:22;1;1;
56069;PMS5003;41944;52.078;-0.058;2022-09-28T14:38:52;4;3;
56069;PMS5003;41944;52.078;-0.058;2022-09-28T14:41:28;2;2;
56069;PMS5003;41944;52.078;-0.058;2022-09-28T14:43:58;1;1;
56069;PMS5003;41944;52.078;-0.058;2022-09-28T14:46:30;1;1;
56069;PMS5003;41944;52.078;-0.058;2022-09-28T14:48:59;1;1;
56069;PMS5003;41944;52.078;-0.058;2022-09-28T14:51:52;3;3;
56069;PMS5003;41944;52.078;-0.058;2022-09-28T14:54:26;3;2;
56069;PMS5003;41944;52.078;-0.058;2022-09-28T14:57:01;1;1;
56069;PMS5003;41944;52.078;-0.058;2022-09-28T14:59:38;0;0;
56069;PMS5003;41944;52.078;-0.058;2022-09-28T15:02:10;2;2;
56069;PMS5003;41944;52.078;-0.058;2022-09-28T15:04:47;3;2;
56069;PMS5003;41944;52.078;-0.058;2022-09-28T15:07:18;4;4;
56069;PMS5003;41944;52.078;-0.058;2022-09-28T15:09:47;2;2;
56069;PMS5003;41944;52.078;-0.058;2022-09-28T15:12:16;5;4;
56069;PMS5003;41944;52.078;-0.058;2022-09-28T15:14:47;2;2;
56069;PMS5003;41944;52.078;-0.058;2022-09-28T15:17:17;1;1;
56069;PMS5003;41944;52.078;-0.058;2022-09-28T15:19:50;3;1;
56069;PMS5003;41944;52.078;-0.058;2022-09-28T15:22:29;2;2;
56069;PMS5003;41944;52.078;-0.058;2022-09-28T15:24:57;1;1;
56069;PMS5003;41944;52.078;-0.058;2022-09-28T15:27:25;6;2;
56069;PMS5003;41944;52.078;-0.058;2022-09-28T15:30:10;2;2;
56069;PMS5003;41944;52.078;-0.058;2022-09-28T15:32:43;2;2;
56069;PMS5003;41944;52.078;-0.058;2022-09-28T15:35:11;2;2;
56069;PMS5003;41944;52.078;-0.058;2022-09-28T15:37:43;3;3;
56069;PMS5003;41944;52.078;-0.058;2022-09-28T15:40:10;1;1;
56069;PMS5003;41944;52.078;-0.058;2022-09-28T15:42:41;1;1;
56069;PMS5003;41944;52.078;-0.058;2022-09-28T15:45:25;2;2;
56069;PMS5003;41944;52.078;-0.058;2022-09-28T15:50:53;3;2;
56069;PMS5003;41944;52.078;-0.058;2022-09-28T15:53:23;2;2;
56069;PMS5003;41944;52.078;-0.058;2022-09-28T15:55:51;2;2;
56069;PMS5003;41944;52.078;-0.058;2022-09-28T15:58:25;1;1;
56069;PMS5003;41944;52.078;-0.058;2022-09-28T16:01:17;1;1;
56069;PMS5003;41944;52.078;-0.058;2022-09-28T16:03:51;1;1;
56069;PMS5003;41944;52.078;-0.058;2022-09-28T16:06:18;1;1;
56069;PMS5003;41944;52.078;-0.058;2022-09-28T16:08:46;3;2;
56069;PMS5003;41944;52.078;-0.058;2022-09-28T16:11:15;1;1;
56069;PMS5003;41944;52.078;-0.058;2022-09-28T16:13:50;2;2;
56069;PMS5003;41944;52.078;-0.058;2022-09-28T16:16:25;2;2;
56069;PMS5003;41944;52.078;-0.058;2022-09-28T16:18:56;2;2;
56069;PMS5003;41944;52.078;-0.058;2022-09-28T16:21:27;3;3;
56069;PMS5003;41944;52.078;-0.058;2022-09-28T16:24:04;3;3;
56069;PMS5003;41944;52.078;-0.058;2022-09-28T16:26:32;3;3;
56069;PMS5003;41944;52.078;-0.058;2022-09-28T16:29:06;1;1;
56069;PMS5003;41944;52.078;-0.058;2022-09-28T16:31:34;3;2;
56069;PMS5003;41944;52.078;-0.058;2022-09-28T16:34:08;2;2;
56069;PMS5003;41944;52.078;-0.058;2022-09-28T16:36:42;7;6;
56069;PMS5003;41944;52.078;-0.058;2022-09-28T16:39:11;4;2;
56069;PMS5003;41944;52.078;-0.058;2022-09-28T16:41:38;7;5;
56069;PMS5003;41944;52.078;-0.058;2022-09-28T16:44:11;5;4;
56069;PMS5003;41944;52.078;-0.058;2022-09-28T16:46:43;3;2;
56069;PMS5003;41944;52.078;-0.058;2022-09-28T16:49:11;2;2;
56069;PMS5003;41944;52.078;-0.058;2022-09-28T16:51:41;2;2;
56069;PMS5003;41944;52.078;-0.058;2022-09-28T16:54:10;2;2;
56069;PMS5003;41944;52.078;-0.058;2022-09-28T16:56:41;3;3;
56069;PMS5003;41944;52.078;-0.058;2022-09-28T16:59:08;2;2;
56069;PMS5003;41944;52.078;-0.058;2022-09-28T17:01:35;3;2;
56069;PMS5003;41944;52.078;-0.058;2022-09-28T17:04:02;3;3;
56069;PMS5003;41944;52.078;-0.058;2022-09-28T17:06:29;3;3;